sensor_id;sensor_type;location;lat;lon;timestamp;pressure;altitude;pressure_sealevel;temperature;humidity
72896;BME280;61036;53.224;6.554;2024-02-23T00:01:31;95247.72;;;5.71;100.00
72896;BME280;61036;53.224;6.554;2024-02-23T00:03:56;95308.56;;;5.51;100.00
72896;BME280;61036;53.224;6.554;2024-02-23T00:06:22;95342.44;;;5.57;100.00
72896;BME280;61036;53.224;6.554;2024-02-23T00:08:53;95398.47;;;5.39;100.00
72896;BME280;61036;53.224;6.554;2024-02-23T00:11:23;95413.44;;;5.40;100.00
72896;BME280;61036;53.224;6.554;2024-02-23T00:13:49;95413.50;;;5.58;100.00
72896;BME280;61036;53.224;6.554;2024-02-23T00:16:14;95441.41;;;5.62;100.00
72896;BME280;61036;53.224;6.554;2024-02-23T00:18:40;95470.47;;;5.52;100.00
72896;BME280;61036;53.224;6.554;2024-02-23T00:21:05;95487.44;;;5.64;100.00
72896;BME280;61036;53.224;6.554;2024-02-23T00:23:31;95489.88;;;5.72;100.00
72896;BME280;61036;53.224;6.554;2024-02-23T00:25:56;95510.03;;;5.68;100.00
72896;BME280;61036;53.224;6.554;2024-02-23T00:28:22;95530.63;;;5.61;100.00
72896;BME280;61036;53.224;6.554;2024-02-23T00:30:47;95553.28;;;5.52;100.00
72896;BME280;61036;53.224;6.554;2024-02-23T00:33:13;95537.16;;;5.65;100.00
72896;BME280;61036;53.224;6.554;2024-02-23T00:35:39;95595.84;;;5.40;100.00
72896;BME280;61036;53.224;6.554;2024-02-23T00:38:04;95615.84;;;5.76;100.00
72896;BME280;61036;53.224;6.554;2024-02-23T00:40:30;95629.75;;;5.91;100.00
72896;BME280;61036;53.224;6.554;2024-02-23T00:42:55;95683.00;;;5.86;100.00
72896;BME280;61036;53.224;6.554;2024-02-23T00:45:21;95708.34;;;5.84;100.00
72896;BME280;61036;53.224;6.554;2024-02-23T00:47:47;95757.88;;;5.80;100.00
72896;BME280;61036;53.224;6.554;2024-02-23T00:50:13;95784.59;;;5.80;100.00
72896;BME280;61036;53.224;6.554;2024-02-23T00:52:39;95838.09;;;5.60;100.00
72896;BME280;61036;53.224;6.554;2024-02-23T00:55:06;95857.19;;;5.43;100.00
72896;BME280;61036;53.224;6.554;2024-02-23T00:57:34;95837.47;;;5.58;100.00
72896;BME280;61036;53.224;6.554;2024-02-23T01:00:01;95891.31;;;5.55;100.00
72896;BME280;61036;53.224;6.554;2024-02-23T01:02:28;95905.28;;;5.57;100.00
72896;BME280;61036;53.224;6.554;2024-02-23T01:04:54;95928.69;;;5.35;100.00
72896;BME280;61036;53.224;6.554;2024-02-23T01:07:22;95917.19;;;5.41;100.00
72896;BME280;61036;53.224;6.554;2024-02-23T01:09:48;95917.41;;;5.33;100.00
72896;BME280;61036;53.224;6.554;2024-02-23T01:12:14;95904.44;;;5.30;100.00
72896;BME280;61036;53.224;6.554;2024-02-23T01:14:39;95910.19;;;5.33;100.00
72896;BME280;61036;53.224;6.554;2024-02-23T01:17:05;95923.75;;;5.38;100.00
72896;BME280;61036;53.224;6.554;2024-02-23T01:19:30;95925.00;;;5.42;100.00
72896;BME280;61036;53.224;6.554;2024-02-23T01:21:55;95940.81;;;5.44;100.00
72896;BME280;61036;53.224;6.554;2024-02-23T01:24:28;95956.06;;;5.57;100.00
72896;BME280;61036;53.224;6.554;2024-02-23T01:26:58;95954.38;;;5.49;100.00
72896;BME280;61036;53.224;6.554;2024-02-23T01:29:25;95949.47;;;5.46;100.00
72896;BME280;61036;53.224;6.554;2024-02-23T01:31:51;95966.28;;;5.26;100.00
72896;BME280;61036;53.224;6.554;2024-02-23T01:34:17;95963.38;;;5.28;100.00
72896;BME280;61036;53.224;6.554;2024-02-23T01:36:44;95957.19;;;5.14;100.00
72896;BME280;61036;53.224;6.554;2024-02-23T01:39:09;95962.47;;;4.94;100.00
72896;BME280;61036;53.224;6.554;2024-02-23T01:41:36;95924.31;;;5.14;100.00
72896;BME280;61036;53.224;6.554;2024-02-23T01:44:02;95915.25;;;5.08;100.00
72896;BME280;61036;53.224;6.554;2024-02-23T01:46:27;95916.94;;;5.16;100.00
72896;BME280;61036;53.224;6.554;2024-02-23T01:48:53;95896.63;;;5.21;100.00
72896;BME280;61036;53.224;6.554;2024-02-23T01:51:19;95897.84;;;5.32;100.00
72896;BME280;61036;53.224;6.554;2024-02-23T01:53:45;95904.41;;;5.16;100.00
72896;BME280;61036;53.224;6.554;2024-02-23T01:56:11;95905.28;;;5.43;100.00
72896;BME280;61036;53.224;6.554;2024-02-23T01:58:43;95954.56;;;5.34;100.00
72896;BME280;61036;53.224;6.554;2024-02-23T02:01:10;95986.84;;;5.46;100.00
72896;BME280;61036;53.224;6.554;2024-02-23T02:03:38;96012.16;;;5.57;100.00
72896;BME280;61036;53.224;6.554;2024-02-23T02:06:05;96015.06;;;5.75;100.00
72896;BME280;61036;53.224;6.554;2024-02-23T02:08:31;96048.06;;;5.47;100.00
72896;BME280;61036;53.224;6.554;2024-02-23T02:10:56;96047.09;;;5.62;100.00
72896;BME280;61036;53.224;6.554;2024-02-23T02:13:22;96062.53;;;5.60;100.00
72896;BME280;61036;53.224;6.554;2024-02-23T02:15:47;96051.63;;;5.68;100.00
72896;BME280;61036;53.224;6.554;2024-02-23T02:18:13;96052.66;;;5.54;100.00
72896;BME280;61036;53.224;6.554;2024-02-23T02:20:40;96009.72;;;5.75;100.00
72896;BME280;61036;53.224;6.554;2024-02-23T02:23:09;96002.72;;;5.61;100.00
72896;BME280;61036;53.224;6.554;2024-02-23T02:25:36;95976.22;;;5.72;100.00
72896;BME280;61036;53.224;6.554;2024-02-23T02:28:06;95958.38;;;5.93;100.00
72896;BME280;61036;53.224;6.554;2024-02-23T02:30:31;95966.19;;;5.94;100.00
72896;BME280;61036;53.224;6.554;2024-02-23T02:32:57;96022.31;;;5.94;100.00
72896;BME280;61036;53.224;6.554;2024-02-23T02:35:22;96087.94;;;6.04;100.00
72896;BME280;61036;53.224;6.554;2024-02-23T02:37:47;96146.56;;;6.05;100.00
72896;BME280;61036;53.224;6.554;2024-02-23T02:40:13;96198.22;;;6.12;100.00
72896;BME280;61036;53.224;6.554;2024-02-23T02:42:38;96226.38;;;6.08;100.00
72896;BME280;61036;53.224;6.554;2024-02-23T02:45:04;96251.50;;;6.14;100.00
72896;BME280;61036;53.224;6.554;2024-02-23T02:47:30;96275.63;;;5.92;100.00
72896;BME280;61036;53.224;6.554;2024-02-23T02:49:55;96282.00;;;5.91;100.00
72896;BME280;61036;53.224;6.554;2024-02-23T02:52:20;96273.44;;;5.96;100.00
72896;BME280;61036;53.224;6.554;2024-02-23T02:54:48;96250.84;;;6.05;100.00
72896;BME280;61036;53.224;6.554;2024-02-23T02:57:14;96265.91;;;5.78;100.00
72896;BME280;61036;53.224;6.554;2024-02-23T02:59:40;96249.94;;;5.91;100.00
72896;BME280;61036;53.224;6.554;2024-02-23T03:02:05;96250.97;;;5.90;100.00
72896;BME280;61036;53.224;6.554;2024-02-23T03:04:30;96246.41;;;5.84;100.00
72896;BME280;61036;53.224;6.554;2024-02-23T03:06:56;96250.88;;;5.77;100.00
72896;BME280;61036;53.224;6.554;2024-02-23T03:09:21;96254.41;;;5.78;100.00
72896;BME280;61036;53.224;6.554;2024-02-23T03:11:47;96254.72;;;5.96;100.00
72896;BME280;61036;53.224;6.554;2024-02-23T03:14:13;96288.09;;;5.79;100.00
72896;BME280;61036;53.224;6.554;2024-02-23T03:16:38;96298.00;;;5.85;100.00
72896;BME280;61036;53.224;6.554;2024-02-23T03:19:04;96298.59;;;5.80;100.00
72896;BME280;61036;53.224;6.554;2024-02-23T03:21:30;96299.38;;;6.02;100.00
72896;BME280;61036;53.224;6.554;2024-02-23T03:23:56;96310.69;;;6.04;100.00
72896;BME280;61036;53.224;6.554;2024-02-23T03:26:21;96326.97;;;6.09;100.00
72896;BME280;61036;53.224;6.554;2024-02-23T03:28:46;96347.81;;;5.92;100.00
72896;BME280;61036;53.224;6.554;2024-02-23T03:31:14;96358.03;;;5.82;100.00
72896;BME280;61036;53.224;6.554;2024-02-23T03:33:39;96366.69;;;5.84;100.00
72896;BME280;61036;53.224;6.554;2024-02-23T03:36:05;96371.50;;;5.95;100.00
72896;BME280;61036;53.224;6.554;2024-02-23T03:38:31;96395.91;;;5.86;100.00
72896;BME280;61036;53.224;6.554;2024-02-23T03:40:56;96375.03;;;5.96;100.00
72896;BME280;61036;53.224;6.554;2024-02-23T03:43:22;96403.13;;;5.92;100.00
72896;BME280;61036;53.224;6.554;2024-02-23T03:45:47;96402.16;;;5.93;100.00
72896;BME280;61036;53.224;6.554;2024-02-23T03:48:13;96429.44;;;5.88;100.00
72896;BME280;61036;53.224;6.554;2024-02-23T03:50:38;96422.00;;;5.84;100.00
72896;BME280;61036;53.224;6.554;2024-02-23T03:53:04;96434.22;;;5.71;100.00
72896;BME280;61036;53.224;6.554;2024-02-23T03:55:29;96427.09;;;5.79;100.00
72896;BME280;61036;53.224;6.554;2024-02-23T03:57:55;96443.66;;;5.67;100.00
72896;BME280;61036;53.224;6.554;2024-02-23T04:00:20;96436.66;;;5.66;100.00
72896;BME280;61036;53.224;6.554;2024-02-23T04:02:48;96443.47;;;5.69;100.00
72896;BME280;61036;53.224;6.554;2024-02-23T04:05:14;96441.75;;;5.61;100.00
72896;BME280;61036;53.224;6.554;2024-02-23T04:07:39;96448.72;;;5.62;100.00
72896;BME280;61036;53.224;6.554;2024-02-23T04:10:05;96458.03;;;5.66;100.00
72896;BME280;61036;53.224;6.554;2024-02-23T04:12:31;96470.50;;;5.59;100.00
72896;BME280;61036;53.224;6.554;2024-02-23T04:14:57;96465.34;;;5.58;100.00
72896;BME280;61036;53.224;6.554;2024-02-23T04:17:22;96483.84;;;5.59;100.00
72896;BME280;61036;53.224;6.554;2024-02-23T04:19:48;96503.91;;;5.48;100.00
72896;BME280;61036;53.224;6.554;2024-02-23T04:22:13;96511.75;;;5.35;100.00
72896;BME280;61036;53.224;6.554;2024-02-23T04:24:39;96521.69;;;5.41;100.00
72896;BME280;61036;53.224;6.554;2024-02-23T04:27:06;96509.97;;;5.57;100.00
72896;BME280;61036;53.224;6.554;2024-02-23T04:29:31;96532.53;;;5.55;100.00
72896;BME280;61036;53.224;6.554;2024-02-23T04:32:01;96539.97;;;5.59;100.00
72896;BME280;61036;53.224;6.554;2024-02-23T04:34:27;96556.53;;;5.48;100.00
72896;BME280;61036;53.224;6.554;2024-02-23T04:36:54;96565.47;;;5.40;100.00
72896;BME280;61036;53.224;6.554;2024-02-23T04:39:20;96568.31;;;5.54;100.00
72896;BME280;61036;53.224;6.554;2024-02-23T04:41:48;96581.31;;;5.42;100.00
72896;BME280;61036;53.224;6.554;2024-02-23T04:44:14;96588.31;;;5.43;100.00
72896;BME280;61036;53.224;6.554;2024-02-23T04:46:39;96604.63;;;5.33;100.00
72896;BME280;61036;53.224;6.554;2024-02-23T04:49:04;96590.88;;;5.51;100.00
72896;BME280;61036;53.224;6.554;2024-02-23T04:51:30;96594.16;;;5.53;100.00
72896;BME280;61036;53.224;6.554;2024-02-23T04:53:55;96600.91;;;5.49;100.00
72896;BME280;61036;53.224;6.554;2024-02-23T04:56:21;96610.69;;;5.42;100.00
72896;BME280;61036;53.224;6.554;2024-02-23T04:58:46;96614.38;;;5.41;100.00
72896;BME280;61036;53.224;6.554;2024-02-23T05:01:12;96614.66;;;5.46;100.00
72896;BME280;61036;53.224;6.554;2024-02-23T05:03:38;96624.81;;;5.36;100.00
72896;BME280;61036;53.224;6.554;2024-02-23T05:06:04;96624.59;;;5.37;100.00
72896;BME280;61036;53.224;6.554;2024-02-23T05:08:30;96627.47;;;5.36;100.00
72896;BME280;61036;53.224;6.554;2024-02-23T05:10:56;96640.72;;;5.44;100.00
72896;BME280;61036;53.224;6.554;2024-02-23T05:13:22;96658.59;;;5.28;100.00
72896;BME280;61036;53.224;6.554;2024-02-23T05:15:48;96664.13;;;5.27;100.00
72896;BME280;61036;53.224;6.554;2024-02-23T05:18:13;96675.81;;;5.26;100.00
72896;BME280;61036;53.224;6.554;2024-02-23T05:20:39;96668.00;;;5.24;100.00
72896;BME280;61036;53.224;6.554;2024-02-23T05:23:05;96673.06;;;5.19;100.00
72896;BME280;61036;53.224;6.554;2024-02-23T05:25:30;96673.50;;;5.23;100.00
72896;BME280;61036;53.224;6.554;2024-02-23T05:27:56;96696.25;;;5.19;100.00
72896;BME280;61036;53.224;6.554;2024-02-23T05:30:21;96682.44;;;5.15;100.00
72896;BME280;61036;53.224;6.554;2024-02-23T05:32:47;96681.50;;;5.08;100.00
72896;BME280;61036;53.224;6.554;2024-02-23T05:35:13;96665.50;;;5.23;100.00
72896;BME280;61036;53.224;6.554;2024-02-23T05:37:39;96664.50;;;5.09;100.00
72896;BME280;61036;53.224;6.554;2024-02-23T05:40:05;96645.22;;;5.14;100.00
72896;BME280;61036;53.224;6.554;2024-02-23T05:42:38;96640.19;;;5.04;100.00
72896;BME280;61036;53.224;6.554;2024-02-23T05:45:04;96627.47;;;4.91;100.00
72896;BME280;61036;53.224;6.554;2024-02-23T05:47:30;96601.22;;;5.10;100.00
72896;BME280;61036;53.224;6.554;2024-02-23T05:49:56;96588.91;;;5.09;100.00
72896;BME280;61036;53.224;6.554;2024-02-23T05:52:22;96580.63;;;5.03;100.00
72896;BME280;61036;53.224;6.554;2024-02-23T05:54:48;96571.94;;;5.01;100.00
72896;BME280;61036;53.224;6.554;2024-02-23T05:57:13;96565.50;;;5.11;100.00
72896;BME280;61036;53.224;6.554;2024-02-23T05:59:38;96561.94;;;4.89;100.00
72896;BME280;61036;53.224;6.554;2024-02-23T06:02:04;96552.34;;;4.94;100.00
72896;BME280;61036;53.224;6.554;2024-02-23T06:04:29;96545.38;;;4.78;100.00
72896;BME280;61036;53.224;6.554;2024-02-23T06:06:55;96519.88;;;4.91;100.00
72896;BME280;61036;53.224;6.554;2024-02-23T06:09:21;96522.25;;;4.86;100.00
72896;BME280;61036;53.224;6.554;2024-02-23T06:11:46;96497.28;;;4.93;100.00
72896;BME280;61036;53.224;6.554;2024-02-23T06:14:12;96489.03;;;4.88;100.00
72896;BME280;61036;53.224;6.554;2024-02-23T06:16:37;96495.03;;;4.75;100.00
72896;BME280;61036;53.224;6.554;2024-02-23T06:19:03;96488.22;;;4.88;100.00
72896;BME280;61036;53.224;6.554;2024-02-23T06:21:29;96470.81;;;4.92;100.00
72896;BME280;61036;53.224;6.554;2024-02-23T06:23:54;96462.72;;;4.85;100.00
72896;BME280;61036;53.224;6.554;2024-02-23T06:26:21;96450.47;;;4.91;100.00
72896;BME280;61036;53.224;6.554;2024-02-23T06:28:46;96428.91;;;4.92;100.00
72896;BME280;61036;53.224;6.554;2024-02-23T06:31:12;96434.63;;;4.89;100.00
72896;BME280;61036;53.224;6.554;2024-02-23T06:33:38;96447.25;;;4.80;100.00
72896;BME280;61036;53.224;6.554;2024-02-23T06:36:04;96440.66;;;4.76;100.00
72896;BME280;61036;53.224;6.554;2024-02-23T06:38:30;96441.53;;;4.84;100.00
72896;BME280;61036;53.224;6.554;2024-02-23T06:40:56;96435.97;;;4.78;100.00
72896;BME280;61036;53.224;6.554;2024-02-23T06:43:21;96444.56;;;4.95;100.00
72896;BME280;61036;53.224;6.554;2024-02-23T06:45:47;96448.25;;;4.94;100.00
72896;BME280;61036;53.224;6.554;2024-02-23T06:48:12;96468.78;;;4.94;100.00
72896;BME280;61036;53.224;6.554;2024-02-23T06:50:38;96469.03;;;4.99;100.00
72896;BME280;61036;53.224;6.554;2024-02-23T06:53:03;96479.75;;;5.20;100.00
72896;BME280;61036;53.224;6.554;2024-02-23T06:55:30;96498.94;;;5.09;100.00
72896;BME280;61036;53.224;6.554;2024-02-23T06:57:56;96513.94;;;5.10;100.00
72896;BME280;61036;53.224;6.554;2024-02-23T07:00:21;96518.03;;;4.91;100.00
72896;BME280;61036;53.224;6.554;2024-02-23T07:02:47;96532.38;;;4.90;100.00
72896;BME280;61036;53.224;6.554;2024-02-23T07:05:13;96516.72;;;5.02;100.00
72896;BME280;61036;53.224;6.554;2024-02-23T07:07:39;96508.59;;;5.10;100.00
72896;BME280;61036;53.224;6.554;2024-02-23T07:10:06;96518.28;;;4.96;100.00
72896;BME280;61036;53.224;6.554;2024-02-23T07:12:31;96538.94;;;4.73;100.00
72896;BME280;61036;53.224;6.554;2024-02-23T07:14:57;96520.59;;;4.99;100.00
72896;BME280;61036;53.224;6.554;2024-02-23T07:17:23;96521.78;;;5.12;100.00
72896;BME280;61036;53.224;6.554;2024-02-23T07:19:49;96539.91;;;5.16;100.00
72896;BME280;61036;53.224;6.554;2024-02-23T07:22:16;96551.84;;;5.20;100.00
72896;BME280;61036;53.224;6.554;2024-02-23T07:24:43;96558.41;;;5.33;100.00
72896;BME280;61036;53.224;6.554;2024-02-23T07:27:08;96572.75;;;5.32;100.00
72896;BME280;61036;53.224;6.554;2024-02-23T07:29:34;96599.22;;;5.26;100.00
72896;BME280;61036;53.224;6.554;2024-02-23T07:32:00;96590.94;;;5.58;100.00
72896;BME280;61036;53.224;6.554;2024-02-23T07:34:25;96624.06;;;5.42;100.00
72896;BME280;61036;53.224;6.554;2024-02-23T07:36:54;96626.59;;;5.50;100.00
72896;BME280;61036;53.224;6.554;2024-02-23T07:39:20;96618.84;;;5.70;100.00
72896;BME280;61036;53.224;6.554;2024-02-23T07:41:45;96617.50;;;5.95;100.00
72896;BME280;61036;53.224;6.554;2024-02-23T07:44:11;96663.44;;;5.84;100.00
72896;BME280;61036;53.224;6.554;2024-02-23T07:46:37;96669.78;;;5.83;100.00
72896;BME280;61036;53.224;6.554;2024-02-23T07:49:04;96666.50;;;6.17;100.00
72896;BME280;61036;53.224;6.554;2024-02-23T07:51:29;96689.50;;;5.97;100.00
72896;BME280;61036;53.224;6.554;2024-02-23T07:53:55;96679.25;;;6.37;100.00
72896;BME280;61036;53.224;6.554;2024-02-23T07:56:20;96726.63;;;6.22;100.00
72896;BME280;61036;53.224;6.554;2024-02-23T07:58:46;96720.34;;;6.51;100.00
72896;BME280;61036;53.224;6.554;2024-02-23T08:01:13;96731.22;;;6.71;100.00
72896;BME280;61036;53.224;6.554;2024-02-23T08:03:40;96807.53;;;6.09;100.00
72896;BME280;61036;53.224;6.554;2024-02-23T08:06:05;96815.56;;;6.09;100.00
72896;BME280;61036;53.224;6.554;2024-02-23T08:08:31;96821.81;;;6.01;100.00
72896;BME280;61036;53.224;6.554;2024-02-23T08:11:01;96829.59;;;5.96;100.00
72896;BME280;61036;53.224;6.554;2024-02-23T08:13:27;96815.34;;;5.95;100.00
72896;BME280;61036;53.224;6.554;2024-02-23T08:15:52;96817.94;;;6.04;100.00
72896;BME280;61036;53.224;6.554;2024-02-23T08:18:18;96819.72;;;5.97;100.00
72896;BME280;61036;53.224;6.554;2024-02-23T08:20:43;96821.00;;;6.01;100.00
72896;BME280;61036;53.224;6.554;2024-02-23T08:23:09;96809.75;;;6.05;100.00
72896;BME280;61036;53.224;6.554;2024-02-23T08:25:35;96805.16;;;6.14;100.00
72896;BME280;61036;53.224;6.554;2024-02-23T08:28:01;96805.50;;;6.11;100.00
72896;BME280;61036;53.224;6.554;2024-02-23T08:30:26;96820.34;;;5.84;100.00
72896;BME280;61036;53.224;6.554;2024-02-23T08:32:52;96791.75;;;6.14;100.00
72896;BME280;61036;53.224;6.554;2024-02-23T08:35:17;96789.53;;;6.17;100.00
72896;BME280;61036;53.224;6.554;2024-02-23T08:37:44;96802.91;;;5.88;100.00
72896;BME280;61036;53.224;6.554;2024-02-23T08:40:10;96802.28;;;6.01;100.00
72896;BME280;61036;53.224;6.554;2024-02-23T08:42:35;96794.91;;;6.03;100.00
72896;BME280;61036;53.224;6.554;2024-02-23T08:45:01;96802.72;;;6.19;100.00
72896;BME280;61036;53.224;6.554;2024-02-23T08:47:27;96815.72;;;6.07;100.00
72896;BME280;61036;53.224;6.554;2024-02-23T08:49:57;96810.13;;;6.17;100.00
72896;BME280;61036;53.224;6.554;2024-02-23T08:52:23;96809.00;;;6.26;100.00
72896;BME280;61036;53.224;6.554;2024-02-23T08:54:48;96823.75;;;6.07;100.00
72896;BME280;61036;53.224;6.554;2024-02-23T08:57:14;96820.91;;;6.24;100.00
72896;BME280;61036;53.224;6.554;2024-02-23T08:59:42;96826.69;;;6.27;100.00
72896;BME280;61036;53.224;6.554;2024-02-23T09:02:08;96835.19;;;6.16;100.00
72896;BME280;61036;53.224;6.554;2024-02-23T09:04:35;96839.03;;;6.43;100.00
72896;BME280;61036;53.224;6.554;2024-02-23T09:07:01;96840.88;;;6.79;100.00
72896;BME280;61036;53.224;6.554;2024-02-23T09:09:27;96858.03;;;6.63;100.00
72896;BME280;61036;53.224;6.554;2024-02-23T09:11:52;96854.19;;;7.08;100.00
72896;BME280;61036;53.224;6.554;2024-02-23T09:14:18;96889.00;;;7.08;100.00
72896;BME280;61036;53.224;6.554;2024-02-23T09:16:43;96915.47;;;7.18;100.00
72896;BME280;61036;53.224;6.554;2024-02-23T09:19:11;96940.59;;;6.96;100.00
72896;BME280;61036;53.224;6.554;2024-02-23T09:21:37;96947.63;;;6.82;100.00
72896;BME280;61036;53.224;6.554;2024-02-23T09:24:04;96928.94;;;6.88;100.00
72896;BME280;61036;53.224;6.554;2024-02-23T09:26:29;96932.00;;;6.85;100.00
72896;BME280;61036;53.224;6.554;2024-02-23T09:28:55;96936.03;;;6.60;100.00
72896;BME280;61036;53.224;6.554;2024-02-23T09:31:20;96920.28;;;6.86;100.00
72896;BME280;61036;53.224;6.554;2024-02-23T09:33:46;96931.22;;;7.06;100.00
72896;BME280;61036;53.224;6.554;2024-02-23T09:36:12;96939.97;;;6.79;100.00
72896;BME280;61036;53.224;6.554;2024-02-23T09:38:37;96943.84;;;6.76;100.00
72896;BME280;61036;53.224;6.554;2024-02-23T09:41:03;96949.53;;;6.88;100.00
72896;BME280;61036;53.224;6.554;2024-02-23T09:43:29;96948.00;;;6.79;100.00
72896;BME280;61036;53.224;6.554;2024-02-23T09:45:57;96957.59;;;6.88;100.00
72896;BME280;61036;53.224;6.554;2024-02-23T09:48:23;96957.94;;;6.85;100.00
72896;BME280;61036;53.224;6.554;2024-02-23T09:50:49;96937.69;;;7.33;100.00
72896;BME280;61036;53.224;6.554;2024-02-23T09:53:16;96968.47;;;7.01;100.00
72896;BME280;61036;53.224;6.554;2024-02-23T09:55:43;96978.31;;;7.16;100.00
72896;BME280;61036;53.224;6.554;2024-02-23T09:58:12;96977.94;;;7.19;100.00
72896;BME280;61036;53.224;6.554;2024-02-23T10:00:40;96981.31;;;7.27;100.00
72896;BME280;61036;53.224;6.554;2024-02-23T10:03:06;96991.44;;;7.25;100.00
72896;BME280;61036;53.224;6.554;2024-02-23T10:05:31;96997.25;;;7.50;100.00
72896;BME280;61036;53.224;6.554;2024-02-23T10:07:57;97000.13;;;7.49;100.00
72896;BME280;61036;53.224;6.554;2024-02-23T10:10:33;97002.00;;;7.70;100.00
72896;BME280;61036;53.224;6.554;2024-02-23T10:13:00;97013.41;;;7.78;100.00
72896;BME280;61036;53.224;6.554;2024-02-23T10:15:28;96926.72;;;12.92;100.00
72896;BME280;61036;53.224;6.554;2024-02-23T10:17:54;97090.84;;;8.67;100.00
72896;BME280;61036;53.224;6.554;2024-02-23T10:20:20;97090.53;;;8.13;100.00
72896;BME280;61036;53.224;6.554;2024-02-23T10:22:45;97079.28;;;8.24;100.00
72896;BME280;61036;53.224;6.554;2024-02-23T10:25:12;97063.19;;;8.02;100.00
72896;BME280;61036;53.224;6.554;2024-02-23T10:27:37;97069.03;;;7.70;100.00
72896;BME280;61036;53.224;6.554;2024-02-23T10:30:03;97075.75;;;7.44;100.00
72896;BME280;61036;53.224;6.554;2024-02-23T10:32:29;97050.09;;;7.35;100.00
72896;BME280;61036;53.224;6.554;2024-02-23T10:35:00;97044.53;;;7.37;100.00
72896;BME280;61036;53.224;6.554;2024-02-23T10:37:26;97022.25;;;7.36;100.00
72896;BME280;61036;53.224;6.554;2024-02-23T10:39:54;97026.41;;;7.39;100.00
72896;BME280;61036;53.224;6.554;2024-02-23T10:42:24;97016.97;;;7.43;100.00
72896;BME280;61036;53.224;6.554;2024-02-23T10:44:53;97032.50;;;7.47;100.00
72896;BME280;61036;53.224;6.554;2024-02-23T10:47:21;97039.06;;;7.45;100.00
72896;BME280;61036;53.224;6.554;2024-02-23T10:49:48;97052.56;;;7.37;100.00
72896;BME280;61036;53.224;6.554;2024-02-23T10:52:13;97063.47;;;7.35;100.00
72896;BME280;61036;53.224;6.554;2024-02-23T10:54:40;97063.88;;;7.17;100.00
72896;BME280;61036;53.224;6.554;2024-02-23T10:57:06;97053.03;;;7.40;100.00
72896;BME280;61036;53.224;6.554;2024-02-23T10:59:32;97068.28;;;7.25;100.00
72896;BME280;61036;53.224;6.554;2024-02-23T11:02:00;97049.59;;;7.46;100.00
72896;BME280;61036;53.224;6.554;2024-02-23T11:04:27;97037.06;;;7.32;100.00
72896;BME280;61036;53.224;6.554;2024-02-23T11:06:54;97002.38;;;7.30;100.00
72896;BME280;61036;53.224;6.554;2024-02-23T11:09:21;97005.31;;;7.14;100.00
72896;BME280;61036;53.224;6.554;2024-02-23T11:11:55;96991.69;;;7.16;100.00
72896;BME280;61036;53.224;6.554;2024-02-23T11:14:37;96999.81;;;7.37;100.00
72896;BME280;61036;53.224;6.554;2024-02-23T11:17:03;97009.75;;;7.07;100.00
72896;BME280;61036;53.224;6.554;2024-02-23T11:19:36;97013.25;;;7.07;100.00
72896;BME280;61036;53.224;6.554;2024-02-23T11:22:02;97005.47;;;7.13;100.00
72896;BME280;61036;53.224;6.554;2024-02-23T11:24:29;97005.91;;;7.31;100.00
72896;BME280;61036;53.224;6.554;2024-02-23T11:27:04;96983.25;;;7.33;100.00
72896;BME280;61036;53.224;6.554;2024-02-23T11:29:35;97010.41;;;6.79;100.00
72896;BME280;61036;53.224;6.554;2024-02-23T11:32:12;96977.81;;;6.76;100.00
72896;BME280;61036;53.224;6.554;2024-02-23T11:34:39;96953.63;;;6.69;100.00
72896;BME280;61036;53.224;6.554;2024-02-23T11:37:11;96940.44;;;6.68;100.00
72896;BME280;61036;53.224;6.554;2024-02-23T11:39:38;96919.13;;;6.74;100.00
72896;BME280;61036;53.224;6.554;2024-02-23T11:42:06;96906.53;;;6.90;100.00
72896;BME280;61036;53.224;6.554;2024-02-23T11:44:32;96907.91;;;6.85;100.00
72896;BME280;61036;53.224;6.554;2024-02-23T11:46:58;96893.13;;;6.90;100.00
72896;BME280;61036;53.224;6.554;2024-02-23T11:49:28;96904.38;;;7.00;100.00
72896;BME280;61036;53.224;6.554;2024-02-23T11:51:54;96927.50;;;6.86;100.00
72896;BME280;61036;53.224;6.554;2024-02-23T11:54:20;96916.22;;;6.91;100.00
72896;BME280;61036;53.224;6.554;2024-02-23T11:56:47;96925.78;;;7.00;100.00
72896;BME280;61036;53.224;6.554;2024-02-23T11:59:15;96936.75;;;7.20;100.00
72896;BME280;61036;53.224;6.554;2024-02-23T12:01:41;96959.31;;;7.10;100.00
72896;BME280;61036;53.224;6.554;2024-02-23T12:04:06;96974.84;;;7.00;100.00
72896;BME280;61036;53.224;6.554;2024-02-23T12:06:33;96979.03;;;7.24;100.00
72896;BME280;61036;53.224;6.554;2024-02-23T12:08:59;96986.56;;;7.14;100.00
72896;BME280;61036;53.224;6.554;2024-02-23T12:11:26;97015.66;;;7.02;100.00
72896;BME280;61036;53.224;6.554;2024-02-23T12:13:52;97016.38;;;7.26;100.00
72896;BME280;61036;53.224;6.554;2024-02-23T12:16:20;97033.66;;;7.08;100.00
72896;BME280;61036;53.224;6.554;2024-02-23T12:18:52;97019.66;;;7.43;100.00
72896;BME280;61036;53.224;6.554;2024-02-23T12:21:18;97029.78;;;7.26;100.00
72896;BME280;61036;53.224;6.554;2024-02-23T12:23:45;97023.59;;;7.25;100.00
72896;BME280;61036;53.224;6.554;2024-02-23T12:26:13;97040.03;;;7.22;100.00
72896;BME280;61036;53.224;6.554;2024-02-23T12:28:39;97023.22;;;7.28;100.00
72896;BME280;61036;53.224;6.554;2024-02-23T12:31:05;97024.47;;;7.32;100.00
72896;BME280;61036;53.224;6.554;2024-02-23T12:33:34;97032.28;;;7.49;100.00
72896;BME280;61036;53.224;6.554;2024-02-23T12:36:00;97044.03;;;7.48;100.00
72896;BME280;61036;53.224;6.554;2024-02-23T12:38:26;97048.22;;;7.36;100.00
72896;BME280;61036;53.224;6.554;2024-02-23T12:40:52;97047.00;;;7.53;100.00
72896;BME280;61036;53.224;6.554;2024-02-23T12:43:18;97060.06;;;7.41;100.00
72896;BME280;61036;53.224;6.554;2024-02-23T12:45:47;97060.88;;;7.42;100.00
72896;BME280;61036;53.224;6.554;2024-02-23T12:48:17;97058.91;;;7.50;100.00
72896;BME280;61036;53.224;6.554;2024-02-23T12:50:43;97055.00;;;7.89;100.00
72896;BME280;61036;53.224;6.554;2024-02-23T12:56:03;97058.84;;;7.80;100.00
72896;BME280;61036;53.224;6.554;2024-02-23T12:58:29;97071.94;;;7.53;100.00